createdAt,value
2018-11-07T00:00:07.880Z,34.47
2018-11-07T00:02:37.199Z,30.23
2018-11-07T00:05:06.773Z,29.90
2018-11-07T00:07:35.933Z,29.10
2018-11-07T00:10:06.291Z,28.50
2018-11-07T00:12:35.451Z,28.83
2018-11-07T00:15:04.720Z,27.67
2018-11-07T00:17:33.918Z,34.03
2018-11-07T00:20:03.200Z,32.83
2018-11-07T00:22:32.177Z,29.57
2018-11-07T00:25:01.367Z,29.53
2018-11-07T00:27:30.459Z,29.37
2018-11-07T00:29:59.544Z,28.13
2018-11-07T00:32:28.568Z,30.20
2018-11-07T00:34:57.693Z,27.50
2018-11-07T00:37:26.909Z,30.80
2018-11-07T00:39:56.154Z,28.50
2018-11-07T00:42:25.218Z,27.43
2018-11-07T00:44:54.298Z,27.60
2018-11-07T00:47:29.962Z,30.50
2018-11-07T00:49:59.076Z,28.87
2018-11-07T00:52:28.146Z,29.80
2018-11-07T00:54:57.344Z,30.63
2018-11-07T00:57:26.674Z,30.77
2018-11-07T00:59:55.802Z,28.87
2018-11-07T01:02:24.794Z,31.37
2018-11-07T01:04:53.992Z,36.77
2018-11-07T01:07:23.083Z,33.03
2018-11-07T01:09:52.094Z,29.90
2018-11-07T01:12:21.109Z,33.93
2018-11-07T01:14:50.229Z,31.97
2018-11-07T01:17:19.272Z,30.03
2018-11-07T01:19:48.434Z,31.83
2018-11-07T01:22:17.568Z,34.17
2018-11-07T01:24:46.812Z,31.47
2018-11-07T01:27:15.947Z,35.30
2018-11-07T01:29:44.961Z,32.20
2018-11-07T01:32:13.998Z,31.97
2018-11-07T01:34:43.001Z,41.00
2018-11-07T01:37:12.134Z,29.87
2018-11-07T01:39:41.286Z,31.97
2018-11-07T01:42:10.342Z,29.93
2018-11-07T01:44:39.356Z,29.37
2018-11-07T01:47:08.507Z,35.03
2018-11-07T01:49:37.480Z,32.30
2018-11-07T01:52:06.481Z,33.63
2018-11-07T01:54:35.550Z,35.93
2018-11-07T01:57:04.819Z,43.10
2018-11-07T01:59:33.997Z,40.83
2018-11-07T02:02:03.091Z,37.53
2018-11-07T02:04:32.166Z,38.73
2018-11-07T02:07:01.267Z,35.47
2018-11-07T02:09:30.367Z,38.27
2018-11-07T02:11:59.443Z,39.77
2018-11-07T02:14:28.631Z,42.53
2018-11-07T02:16:57.692Z,45.20
2018-11-07T02:19:27.421Z,40.93
2018-11-07T02:21:56.683Z,44.27
2018-11-07T02:24:25.923Z,46.77
2018-11-07T02:26:54.937Z,42.03
2018-11-07T02:29:24.117Z,44.53
2018-11-07T02:31:53.149Z,38.80
2018-11-07T02:34:22.326Z,35.77
2018-11-07T02:36:51.469Z,35.00
2018-11-07T02:39:20.419Z,39.30
2018-11-07T02:41:49.507Z,38.70
2018-11-07T02:44:18.487Z,39.93
2018-11-07T02:46:47.530Z,40.23
2018-11-07T02:49:16.591Z,37.57
2018-11-07T02:51:45.681Z,38.13
2018-11-07T02:54:14.751Z,40.50
2018-11-07T02:56:43.861Z,40.87
2018-11-07T02:59:12.947Z,44.30
2018-11-07T03:01:41.996Z,41.50
2018-11-07T03:04:11.076Z,44.63
2018-11-07T03:06:40.158Z,41.27
2018-11-07T03:09:09.822Z,39.10
2018-11-07T03:11:38.958Z,38.83
2018-11-07T03:14:08.590Z,41.23
2018-11-07T03:16:37.944Z,47.33
2018-11-07T03:19:07.331Z,45.13
2018-11-07T03:21:36.446Z,50.83
2018-11-07T03:24:05.850Z,53.57
2018-11-07T03:26:34.913Z,58.47
2018-11-07T03:29:04.085Z,54.43
2018-11-07T03:31:33.150Z,57.33
2018-11-07T03:34:02.238Z,55.27
2018-11-07T03:36:31.276Z,50.43
2018-11-07T03:39:00.369Z,63.30
2018-11-07T03:41:29.447Z,57.50
2018-11-07T03:43:58.519Z,73.10
2018-11-07T03:46:27.654Z,68.33
2018-11-07T03:48:56.807Z,76.53
2018-11-07T03:51:25.935Z,65.77
2018-11-07T03:53:55.073Z,87.67
2018-11-07T03:56:24.214Z,123.73
2018-11-07T03:58:53.205Z,136.57
2018-11-07T04:01:22.277Z,82.40
2018-11-07T04:03:51.289Z,101.97
2018-11-07T04:06:20.374Z,88.53
2018-11-07T04:11:21.537Z,100.00
2018-11-07T04:13:50.597Z,125.33
2018-11-07T04:16:19.803Z,80.87
2018-11-07T04:18:48.892Z,98.30
2018-11-07T04:21:17.923Z,97.53
2018-11-07T04:23:51.309Z,90.40
2018-11-07T04:26:20.402Z,75.53
2018-11-07T04:28:49.609Z,106.17
2018-11-07T04:31:18.667Z,63.23
2018-11-07T04:33:47.748Z,81.43
2018-11-07T04:36:16.909Z,94.10
2018-11-07T04:38:46.265Z,99.33
2018-11-07T04:41:15.387Z,71.87
2018-11-07T04:43:44.490Z,110.80
2018-11-07T04:46:13.548Z,106.70
2018-11-07T04:48:42.952Z,120.70
2018-11-07T04:51:12.174Z,90.53
2018-11-07T04:53:41.250Z,141.53
2018-11-07T04:56:10.383Z,115.03
2018-11-07T04:58:39.649Z,90.73
2018-11-07T05:01:08.882Z,125.60
2018-11-07T05:03:37.910Z,70.60
2018-11-07T05:06:06.988Z,84.13
2018-11-07T05:08:36.074Z,127.13
2018-11-07T05:11:05.252Z,93.47
2018-11-07T05:13:34.410Z,62.83
2018-11-07T05:16:03.891Z,111.17
2018-11-07T05:18:33.015Z,101.40
2018-11-07T05:21:02.170Z,109.40
2018-11-07T05:23:31.503Z,94.30
2018-11-07T05:26:00.756Z,141.47
2018-11-07T05:28:29.691Z,76.33
2018-11-07T05:30:58.747Z,87.87
2018-11-07T05:33:27.796Z,100.30
2018-11-07T05:35:56.853Z,85.50
2018-11-07T05:38:25.904Z,120.43
2018-11-07T05:40:55.034Z,73.90
2018-11-07T05:43:24.090Z,133.23
2018-11-07T05:45:53.329Z,89.80
2018-11-07T05:48:22.420Z,93.17
2018-11-07T05:50:51.497Z,62.90
2018-11-07T05:53:20.507Z,84.80
2018-11-07T05:55:49.517Z,67.80
2018-11-07T05:58:18.789Z,75.00
2018-11-07T06:00:48.812Z,99.20
2018-11-07T06:03:17.932Z,102.53
2018-11-07T06:05:47.096Z,81.73
2018-11-07T06:08:16.202Z,61.43
2018-11-07T06:10:45.250Z,77.93
2018-11-07T06:13:14.802Z,63.43
2018-11-07T06:15:44.214Z,63.57
2018-11-07T06:18:13.299Z,63.67
2018-11-07T06:20:42.581Z,95.20
2018-11-07T06:23:11.672Z,65.53
2018-11-07T06:25:40.841Z,68.30
2018-11-07T06:28:10.001Z,100.00
2018-11-07T06:30:39.154Z,66.40
2018-11-07T06:33:08.273Z,95.43
2018-11-07T06:35:37.347Z,110.67
2018-11-07T06:38:06.750Z,95.07
2018-11-07T06:40:35.876Z,109.47
2018-11-07T06:43:04.982Z,69.63
2018-11-07T06:45:34.017Z,100.50
2018-11-07T06:48:03.152Z,78.17
2018-11-07T06:50:32.284Z,64.43
2018-11-07T06:53:01.512Z,103.37
2018-11-07T06:55:30.669Z,77.37
2018-11-07T06:57:59.663Z,89.37
2018-11-07T07:00:33.021Z,59.93
2018-11-07T07:03:03.011Z,68.50
2018-11-07T07:05:32.106Z,90.57
2018-11-07T07:08:01.275Z,80.67
2018-11-07T07:10:30.619Z,78.77
2018-11-07T07:12:59.641Z,62.50
2018-11-07T07:15:28.715Z,57.57
2018-11-07T07:17:57.854Z,66.00
2018-11-07T07:20:26.933Z,69.87
2018-11-07T07:22:55.983Z,67.83
2018-11-07T07:25:25.073Z,72.10
2018-11-07T07:27:53.973Z,52.23
2018-11-07T07:30:23.283Z,68.40
2018-11-07T07:32:52.603Z,68.03
2018-11-07T07:35:21.618Z,52.40
2018-11-07T07:37:50.778Z,48.03
2018-11-07T07:40:19.898Z,67.77
2018-11-07T07:42:48.961Z,59.43
2018-11-07T07:45:19.178Z,79.97
2018-11-07T07:47:48.341Z,64.20
2018-11-07T07:50:18.445Z,70.30
2018-11-07T07:52:47.537Z,68.97
2018-11-07T07:55:16.583Z,52.37
2018-11-07T07:57:45.622Z,58.40
2018-11-07T08:00:16.932Z,50.60
2018-11-07T08:02:47.106Z,65.97
2018-11-07T08:05:16.271Z,62.17
2018-11-07T08:07:45.871Z,55.23
2018-11-07T08:10:16.231Z,53.73
2018-11-07T08:12:45.736Z,51.30
2018-11-07T08:15:15.237Z,48.47
2018-11-07T08:17:44.814Z,49.90
2018-11-07T08:20:14.946Z,56.43
2018-11-07T08:22:44.868Z,42.67
2018-11-07T08:25:14.172Z,42.47
2018-11-07T08:27:43.234Z,44.93
2018-11-07T08:30:14.455Z,49.93
2018-11-07T08:32:43.686Z,55.63
2018-11-07T08:35:13.638Z,47.17
2018-11-07T08:37:43.634Z,46.80
2018-11-07T08:40:14.815Z,43.67
2018-11-07T08:42:44.037Z,44.63
2018-11-07T08:45:13.438Z,46.07
2018-11-07T08:47:43.174Z,55.63
2018-11-07T08:50:17.199Z,43.97
2018-11-07T08:52:47.138Z,47.93
2018-11-07T08:55:23.128Z,47.10
2018-11-07T08:57:52.371Z,54.60
2018-11-07T09:00:23.500Z,46.17
2018-11-07T09:02:52.709Z,58.33
2018-11-07T09:05:22.559Z,47.53
2018-11-07T09:07:51.739Z,44.90
2018-11-07T09:10:22.203Z,47.50
2018-11-07T09:12:51.250Z,46.70
2018-11-07T09:15:21.596Z,45.20
2018-11-07T09:17:50.751Z,46.83
2018-11-07T09:20:21.081Z,46.93
2018-11-07T09:22:50.263Z,43.67
2018-11-07T09:25:19.404Z,41.97
2018-11-07T09:27:48.685Z,39.53
2018-11-07T09:30:19.976Z,52.30
2018-11-07T09:32:49.148Z,47.20
2018-11-07T09:35:18.597Z,48.30
2018-11-07T09:37:47.797Z,52.13
2018-11-07T09:40:18.177Z,49.03
2018-11-07T09:42:47.867Z,44.60
2018-11-07T09:45:18.533Z,36.00
2018-11-07T09:47:47.952Z,39.07
2018-11-07T09:50:17.701Z,45.17
2018-11-07T09:52:47.017Z,39.87
2018-11-07T09:55:17.351Z,43.70
2018-11-07T09:57:46.591Z,40.90
2018-11-07T10:00:17.802Z,35.83
2018-11-07T10:02:47.042Z,41.97
2018-11-07T10:05:17.196Z,40.47
2018-11-07T10:07:46.369Z,46.33
2018-11-07T10:10:16.791Z,41.93
2018-11-07T10:12:46.209Z,41.70
2018-11-07T10:15:15.510Z,37.23
2018-11-07T10:17:44.518Z,40.10
2018-11-07T10:20:15.620Z,42.10
2018-11-07T10:22:45.345Z,38.30
2018-11-07T10:25:14.726Z,41.17
2018-11-07T10:27:44.000Z,37.80
2018-11-07T10:30:15.693Z,43.90
2018-11-07T10:32:45.401Z,35.63
2018-11-07T10:35:14.556Z,36.93
2018-11-07T10:37:43.771Z,34.60
2018-11-07T10:40:14.953Z,34.97
2018-11-07T10:42:44.466Z,35.73
2018-11-07T10:45:13.554Z,34.97
2018-11-07T10:47:43.752Z,41.67
2018-11-07T10:50:13.839Z,36.30
2018-11-07T10:52:43.735Z,36.60
2018-11-07T10:55:13.835Z,38.20
2018-11-07T10:57:43.000Z,38.10
2018-11-07T11:00:19.274Z,37.43
2018-11-07T11:03:50.719Z,42.50
2018-11-07T11:06:19.927Z,39.87
2018-11-07T11:08:49.177Z,33.23
2018-11-07T11:11:18.553Z,37.77
2018-11-07T11:13:47.781Z,40.30
2018-11-07T11:16:17.052Z,36.17
2018-11-07T11:18:46.108Z,40.00
2018-11-07T11:21:15.237Z,41.13
2018-11-07T11:23:44.459Z,41.13
2018-11-07T11:26:13.709Z,37.77
2018-11-07T11:28:43.257Z,37.97
2018-11-07T11:31:12.504Z,42.63
2018-11-07T11:33:41.578Z,38.80
2018-11-07T11:36:10.616Z,41.97
2018-11-07T11:38:40.178Z,40.83
2018-11-07T11:41:09.645Z,44.20
2018-11-07T11:43:38.675Z,41.40
2018-11-07T11:46:07.961Z,40.13
2018-11-07T11:48:37.228Z,39.70
2018-11-07T11:51:06.656Z,44.63
2018-11-07T11:53:35.738Z,41.23
2018-11-07T11:56:04.928Z,41.63
2018-11-07T11:58:34.021Z,44.53
2018-11-07T12:01:03.053Z,38.00
2018-11-07T12:03:32.569Z,40.97
2018-11-07T12:06:01.633Z,36.77
2018-11-07T12:08:30.875Z,36.97
2018-11-07T12:10:59.884Z,40.07
2018-11-07T12:13:29.169Z,38.87
2018-11-07T12:15:58.235Z,40.80
2018-11-07T12:18:27.585Z,40.27
2018-11-07T12:20:56.677Z,42.50
2018-11-07T12:23:25.919Z,42.53
2018-11-07T12:25:55.075Z,43.43
2018-11-07T12:28:24.188Z,42.37
2018-11-07T12:30:53.298Z,42.93
2018-11-07T12:33:22.663Z,44.30
2018-11-07T12:35:51.903Z,48.03
2018-11-07T12:38:21.097Z,40.10
2018-11-07T12:40:50.947Z,47.80
2018-11-07T12:43:20.053Z,44.77
2018-11-07T12:45:49.182Z,41.90
2018-11-07T12:48:18.240Z,39.70
2018-11-07T12:50:47.458Z,37.40
2018-11-07T12:53:16.879Z,45.03
2018-11-07T12:55:45.928Z,41.43
2018-11-07T12:58:15.092Z,41.30
2018-11-07T13:00:44.470Z,43.20
2018-11-07T13:03:13.772Z,38.70
2018-11-07T13:05:43.286Z,42.73
2018-11-07T13:08:12.433Z,38.07
2018-11-07T13:10:41.550Z,38.23
2018-11-07T13:13:10.901Z,41.47
2018-11-07T13:15:40.779Z,40.23
2018-11-07T13:18:10.044Z,44.70
2018-11-07T13:20:39.595Z,45.40
2018-11-07T13:23:08.698Z,43.83
2018-11-07T13:25:38.167Z,43.80
2018-11-07T13:28:07.258Z,42.57
2018-11-07T13:30:36.187Z,37.60
2018-11-07T13:33:05.778Z,45.27
2018-11-07T13:35:35.367Z,45.37
2018-11-07T13:38:04.662Z,43.50
2018-11-07T13:40:33.475Z,41.53
2018-11-07T13:43:02.599Z,41.13
2018-11-07T13:45:31.712Z,41.73
2018-11-07T13:48:00.769Z,39.87
2018-11-07T13:50:29.989Z,36.73
2018-11-07T13:52:59.092Z,39.90
2018-11-07T13:55:28.200Z,44.80
2018-11-07T13:57:57.458Z,42.03
2018-11-07T14:00:26.569Z,41.30
2018-11-07T14:02:55.625Z,41.40
2018-11-07T14:05:24.702Z,40.70
2018-11-07T14:07:53.727Z,38.63
2018-11-07T14:10:24.997Z,40.47
2018-11-07T14:12:54.441Z,37.10
2018-11-07T14:15:30.186Z,40.07
2018-11-07T14:17:59.308Z,39.37
2018-11-07T14:20:28.603Z,35.73
2018-11-07T14:22:57.801Z,38.83
2018-11-07T14:25:27.112Z,41.50
2018-11-07T14:27:56.569Z,39.43
2018-11-07T14:30:25.959Z,38.07
2018-11-07T14:32:57.063Z,37.93
2018-11-07T14:35:26.127Z,42.27
2018-11-07T14:37:56.191Z,40.77
2018-11-07T14:40:25.316Z,38.83
2018-11-07T14:42:54.539Z,37.10
2018-11-07T14:45:23.778Z,40.57
2018-11-07T14:47:53.066Z,36.87
2018-11-07T14:50:22.233Z,39.43
2018-11-07T14:52:51.285Z,35.23
2018-11-07T14:55:20.279Z,43.53
2018-11-07T14:57:50.541Z,43.73
2018-11-07T15:00:19.873Z,41.13
2018-11-07T15:02:49.036Z,38.93
2018-11-07T15:05:19.599Z,37.00
2018-11-07T15:07:48.768Z,38.03
2018-11-07T15:10:18.244Z,39.63
2018-11-07T15:12:47.831Z,43.77
2018-11-07T15:15:18.456Z,43.97
2018-11-07T15:17:47.579Z,43.33
2018-11-07T15:20:17.894Z,40.50
2018-11-07T15:22:48.228Z,43.20
2018-11-07T15:25:17.614Z,50.70
2018-11-07T15:27:47.364Z,45.67
2018-11-07T15:30:17.076Z,45.90
2018-11-07T15:32:46.556Z,46.07
2018-11-07T15:35:15.608Z,43.37
2018-11-07T15:37:44.723Z,45.13
2018-11-07T15:40:16.176Z,48.13
2018-11-07T15:42:45.725Z,43.47
2018-11-07T15:45:17.297Z,48.17
2018-11-07T15:47:46.562Z,43.50
2018-11-07T15:52:24.231Z,46.83
2018-11-07T15:54:53.388Z,47.43
2018-11-07T15:57:22.507Z,39.57
2018-11-07T15:59:51.616Z,45.97
2018-11-07T16:02:20.754Z,49.37
2018-11-07T16:04:50.309Z,42.13
2018-11-07T16:07:20.305Z,44.27
2018-11-07T16:09:51.139Z,42.53
2018-11-07T16:12:20.411Z,49.57
2018-11-07T16:14:49.529Z,48.47
2018-11-07T16:17:18.618Z,47.23
2018-11-07T16:19:47.693Z,49.03
2018-11-07T16:22:16.753Z,49.07
2018-11-07T16:24:45.887Z,42.27
2018-11-07T16:27:14.944Z,42.30
2018-11-07T16:29:44.087Z,41.50
2018-11-07T16:32:13.587Z,40.60
2018-11-07T16:34:42.838Z,45.77
2018-11-07T16:37:11.876Z,40.77
2018-11-07T16:39:41.319Z,42.93
2018-11-07T16:42:10.448Z,47.03
2018-11-07T16:44:39.474Z,46.53
2018-11-07T16:47:08.574Z,42.90
2018-11-07T16:49:37.578Z,47.43
2018-11-07T16:52:06.679Z,42.53
2018-11-07T16:54:36.001Z,41.83
2018-11-07T16:57:05.074Z,40.40
2018-11-07T16:59:34.148Z,41.00
2018-11-07T17:02:03.492Z,44.27
2018-11-07T17:04:32.591Z,38.80
2018-11-07T17:07:01.694Z,38.70
2018-11-07T17:09:30.736Z,43.33
2018-11-07T17:11:59.896Z,49.20
2018-11-07T17:14:29.073Z,44.23
2018-11-07T17:16:58.106Z,42.87
2018-11-07T17:19:27.371Z,44.67
2018-11-07T17:21:56.651Z,41.17
2018-11-07T17:24:25.960Z,43.10
2018-11-07T17:26:54.826Z,48.07
2018-11-07T17:29:23.998Z,38.57
2018-11-07T17:31:53.273Z,44.33
2018-11-07T17:34:22.412Z,43.47
2018-11-07T17:36:51.462Z,42.17
2018-11-07T17:39:20.826Z,47.13
2018-11-07T17:41:49.874Z,44.23
2018-11-07T17:44:19.015Z,47.33
2018-11-07T17:46:48.054Z,50.93
2018-11-07T17:49:17.085Z,46.83
2018-11-07T17:51:46.145Z,46.60
2018-11-07T17:54:15.162Z,43.93
2018-11-07T17:56:44.240Z,45.33
2018-11-07T17:59:13.363Z,42.57
2018-11-07T18:01:42.533Z,41.17
2018-11-07T18:04:12.323Z,43.93
2018-11-07T18:06:41.524Z,43.07
2018-11-07T18:09:10.894Z,43.53
2018-11-07T18:11:40.070Z,46.10
2018-11-07T18:14:09.584Z,44.17
2018-11-07T18:16:38.787Z,41.50
2018-11-07T18:19:08.298Z,50.30
2018-11-07T18:21:37.451Z,41.60
2018-11-07T18:24:06.635Z,48.33
2018-11-07T18:26:35.773Z,41.57
2018-11-07T18:29:05.389Z,43.87
2018-11-07T18:31:34.455Z,45.27
2018-11-07T18:34:03.542Z,45.23
2018-11-07T18:36:32.639Z,49.33
2018-11-07T18:39:01.947Z,46.47
2018-11-07T18:41:31.011Z,44.60
2018-11-07T18:44:00.201Z,52.70
2018-11-07T18:46:30.480Z,48.07
2018-11-07T18:49:00.007Z,76.37
2018-11-07T18:51:29.127Z,75.73
2018-11-07T18:53:58.472Z,71.50
2018-11-07T18:56:29.569Z,84.47
2018-11-07T18:59:00.198Z,60.53
2018-11-07T19:01:30.154Z,62.37
2018-11-07T19:04:00.913Z,62.80
2018-11-07T19:06:31.153Z,59.70
2018-11-07T19:09:01.550Z,60.97
2018-11-07T19:11:31.299Z,56.77
2018-11-07T19:14:02.245Z,59.77
2018-11-07T19:16:32.025Z,55.13
2018-11-07T19:19:04.135Z,59.97
2018-11-07T19:21:33.505Z,51.50
2018-11-07T19:24:02.981Z,49.30
2018-11-07T19:26:34.168Z,51.13
2018-11-07T19:29:04.114Z,51.63
2018-11-07T19:31:33.193Z,45.67
2018-11-07T19:34:05.516Z,42.77
2018-11-07T19:36:35.951Z,43.67
2018-11-07T19:39:09.604Z,47.47
2018-11-07T19:41:39.353Z,43.83
2018-11-07T19:44:09.110Z,50.80
2018-11-07T19:46:38.322Z,40.43
2018-11-07T19:49:15.365Z,52.70
2018-11-07T19:51:44.699Z,46.10
2018-11-07T19:54:15.408Z,41.17
2018-11-07T19:56:45.715Z,45.00
2018-11-07T19:59:15.876Z,49.13
2018-11-07T20:01:45.636Z,50.87
2018-11-07T20:04:15.422Z,48.20
2018-11-07T20:06:44.590Z,62.23
2018-11-07T20:09:13.979Z,58.77
2018-11-07T20:11:43.172Z,63.63
2018-11-07T20:14:12.287Z,52.17
2018-11-07T20:16:41.480Z,81.67
2018-11-07T20:19:10.437Z,52.03
2018-11-07T20:21:39.454Z,69.53
2018-11-07T20:24:08.726Z,67.30
2018-11-07T20:26:37.935Z,56.80
2018-11-07T20:29:07.011Z,64.30
2018-11-07T20:31:36.193Z,62.90
2018-11-07T20:34:05.423Z,57.53
2018-11-07T20:36:34.590Z,64.67
2018-11-07T20:39:05.847Z,59.03
2018-11-07T20:41:35.103Z,64.47
2018-11-07T20:44:04.031Z,63.10
2018-11-07T20:46:33.054Z,70.87
2018-11-07T20:49:02.250Z,48.40
2018-11-07T20:51:31.311Z,46.33
2018-11-07T20:54:00.565Z,50.70
2018-11-07T20:56:29.782Z,54.47
2018-11-07T20:58:58.806Z,55.73
2018-11-07T21:01:28.023Z,45.57
2018-11-07T21:03:57.054Z,54.63
2018-11-07T21:06:26.188Z,58.10
2018-11-07T21:08:55.362Z,46.03
2018-11-07T21:11:24.481Z,58.53
2018-11-07T21:13:53.577Z,51.43
2018-11-07T21:16:22.690Z,69.00
2018-11-07T21:18:51.730Z,46.43
2018-11-07T21:21:20.766Z,44.73
2018-11-07T21:23:49.870Z,47.30
2018-11-07T21:26:19.052Z,69.47
2018-11-07T21:28:48.135Z,49.63
2018-11-07T21:31:17.431Z,57.30
2018-11-07T21:33:46.660Z,65.23
2018-11-07T21:36:15.677Z,69.77
2018-11-07T21:38:44.748Z,81.23
2018-11-07T21:41:13.923Z,61.07
2018-11-07T21:43:43.057Z,61.53
2018-11-07T21:46:12.146Z,64.80
2018-11-07T21:48:41.597Z,61.00
2018-11-07T21:51:10.751Z,55.03
2018-11-07T21:53:39.990Z,71.67
2018-11-07T21:56:09.122Z,70.80
2018-11-07T21:58:38.290Z,77.43
2018-11-07T22:01:07.300Z,69.23
2018-11-07T22:03:36.391Z,53.43
2018-11-07T22:06:05.458Z,44.17
2018-11-07T22:08:34.484Z,45.67
2018-11-07T22:11:03.772Z,68.53
2018-11-07T22:13:32.757Z,51.50
2018-11-07T22:16:01.841Z,42.30
2018-11-07T22:18:31.006Z,38.83
2018-11-07T22:21:00.065Z,51.17
2018-11-07T22:23:29.185Z,53.40
2018-11-07T22:25:58.402Z,45.03
2018-11-07T22:28:27.433Z,47.57
2018-11-07T22:30:56.485Z,55.97
2018-11-07T22:33:25.558Z,42.77
2018-11-07T22:35:54.550Z,50.70
2018-11-07T22:38:23.919Z,39.70
2018-11-07T22:40:53.118Z,49.27
2018-11-07T22:43:22.194Z,59.33
2018-11-07T22:45:51.323Z,48.50
2018-11-07T22:48:20.511Z,42.50
2018-11-07T22:50:49.709Z,72.13
2018-11-07T22:53:18.801Z,81.90
2018-11-07T22:55:47.901Z,72.13
2018-11-07T22:58:17.234Z,70.87
2018-11-07T23:00:51.761Z,60.97
2018-11-07T23:03:21.632Z,44.53
2018-11-07T23:05:50.844Z,58.07
2018-11-07T23:08:20.114Z,47.77
2018-11-07T23:10:49.247Z,68.63
2018-11-07T23:13:18.505Z,78.53
2018-11-07T23:15:48.446Z,45.77
2018-11-07T23:18:19.103Z,61.80
2018-11-07T23:20:48.332Z,54.83
2018-11-07T23:23:17.825Z,58.80
2018-11-07T23:25:47.214Z,54.83
2018-11-07T23:28:16.250Z,58.33
2018-11-07T23:30:45.711Z,49.23
2018-11-07T23:33:14.792Z,45.63
2018-11-07T23:35:43.997Z,60.73
2018-11-07T23:38:12.986Z,75.50
2018-11-07T23:40:42.191Z,68.50
2018-11-07T23:43:11.187Z,66.83
2018-11-07T23:45:40.285Z,69.00
2018-11-07T23:48:09.344Z,90.80
2018-11-07T23:50:38.447Z,52.20
2018-11-07T23:53:07.616Z,72.27
2018-11-07T23:55:36.856Z,52.57
2018-11-07T23:58:06.590Z,48.50
